Ardsley, New York
Current Conditions -  °F | °C
As of 11:56 AM on Monday 22 Dec 2014 (Local Time) from KHPN Reporting Station
Overcast Overcast  
Wind Chill:   Ceiling: 2100
Heat Index:   Visibility: 10mi
Dew Point:   Wind: 7mph
Humidity: 79%   Direction: 90°E
Pressure: 30.27"   Gusts: NA
Location:  41.01°N, 73.84°W
Report Text: KHPN 221656Z 09006KT 10SM BKN021 OVC036 05/02 A3027 RMK AO2 PRESFR SLP256 T00500017
Loading
Personal Weather Stations






























Interactive Weather Map New forecast layout! Learn more

10-Day Weather Forecast

Advertisements
Track Severe Weather on mobile